Time;durP1;ratioP1;P1;durP2;ratioP2;P2;SDS_P1;SDS_P2;PMS_P1;PMS_P2;Temp;Humidity;BMP_temperature;BMP_pressure;BME280_temperature;BME280_humidity;BME280_pressure;Samples;Min_cycle;Max_cycle;Signal;HPM_P1;HPM_P2
2023/01/16 00:01:59;;;;;;;5.93;1.90;;;4.00;78.10;;;7.37;47.88;96423.38;5028858;28;20061;-40
2023/01/16 00:04:27;;;;;;;3.27;1.67;;;4.10;77.80;;;7.38;47.87;96417.06;5029339;28;20200;-42
2023/01/16 00:06:55;;;;;;;3.03;1.23;;;4.10;77.80;;;7.35;47.64;96417.41;5012881;28;20045;-40
2023/01/16 00:09:23;;;;;;;2.87;1.07;;;4.00;77.60;;;7.33;48.03;96407.97;5029067;28;20448;-41
2023/01/16 00:11:51;;;;;;;3.37;1.17;;;4.00;78.00;;;7.32;47.76;96403.69;5029076;28;20037;-40
2023/01/16 00:14:18;;;;;;;2.33;1.33;;;4.00;77.90;;;7.34;48.50;96396.41;5028743;28;20038;-41
2023/01/16 00:16:46;;;;;;;2.30;1.20;;;4.10;77.80;;;7.39;47.95;96400.19;5030471;28;20510;-41
2023/01/16 00:19:14;;;;;;;3.83;1.20;;;4.20;77.70;;;7.45;48.23;96388.09;5030071;28;20046;-41
2023/01/16 00:21:42;;;;;;;4.03;1.30;;;4.30;77.40;;;7.48;48.01;96391.22;5031732;28;20042;-41
2023/01/16 00:24:10;;;;;;;3.37;1.20;;;4.30;76.50;;;7.48;47.95;96380.63;5033816;28;20412;-41
2023/01/16 00:26:37;;;;;;;2.57;1.57;;;4.30;76.80;;;7.48;47.88;96375.34;5032763;28;20056;-42
2023/01/16 00:29:05;;;;;;;8.03;4.03;;;4.30;76.40;;;7.44;48.11;96373.19;5034067;28;20045;-41
2023/01/16 00:31:33;;;;;;;8.40;2.20;;;4.30;76.40;;;7.46;47.82;96371.19;5033575;28;20046;-40
2023/01/16 00:34:01;;;;;;;5.23;2.83;;;4.40;76.20;;;7.48;47.79;96366.53;5033611;28;20497;-41
2023/01/16 00:36:28;;;;;;;3.17;2.07;;;4.40;76.10;;;7.47;48.07;96360.44;5032307;28;20049;-41
2023/01/16 00:38:56;;;;;;;4.93;1.70;;;4.40;75.90;;;7.46;47.86;96360.59;5032161;28;20416;-42
2023/01/16 00:41:24;;;;;;;3.97;1.93;;;4.40;75.70;;;7.37;47.26;96343.13;5032362;28;20048;-41
2023/01/16 00:43:53;;;;;;;8.60;4.00;;;4.30;75.40;;;7.28;47.55;96340.47;5033667;28;20041;-40
2023/01/16 00:46:21;;;;;;;2.20;1.57;;;4.20;75.70;;;7.25;47.56;96332.91;5032417;28;20041;-40
2023/01/16 00:48:49;;;;;;;10.13;5.03;;;4.10;76.00;;;7.21;47.77;96321.00;5032228;28;20072;-41
2023/01/16 00:51:18;;;;;;;6.60;2.50;;;4.20;76.00;;;7.19;47.43;96325.66;5033327;28;20312;-41
2023/01/16 00:53:46;;;;;;;8.03;2.00;;;4.10;75.60;;;7.21;48.10;96323.66;5033331;28;20041;-41
2023/01/16 00:56:14;;;;;;;5.63;2.23;;;4.10;76.20;;;7.22;47.70;96317.34;5033258;28;20060;-41
2023/01/16 00:58:41;;;;;;;3.77;2.03;;;4.10;76.10;;;7.21;47.51;96309.59;5032663;28;20493;-41
2023/01/16 01:01:09;;;;;;;5.10;2.60;;;4.10;76.20;;;7.19;47.42;96303.63;5033068;28;20049;-41
2023/01/16 01:03:41;;;;;;;5.03;2.50;;;4.00;76.00;;;7.18;48.16;96310.75;5032095;28;20057;-40
2023/01/16 01:06:13;;;;;;;7.63;3.83;;;3.90;76.40;;;7.17;47.63;96309.09;5033127;28;20393;-41
2023/01/16 01:08:41;;;;;;;3.13;1.80;;;4.00;76.50;;;7.16;47.83;96299.53;5032536;28;20041;-41
2023/01/16 01:11:13;;;;;;;3.63;2.27;;;3.90;76.70;;;7.13;48.04;96301.69;5032592;28;20045;-40
2023/01/16 01:13:42;;;;;;;5.27;2.70;;;3.90;76.80;;;7.12;48.10;96287.63;5033047;28;20042;-40
2023/01/16 01:16:11;;;;;;;5.13;2.27;;;3.80;76.60;;;7.09;47.62;96286.16;5033019;28;20044;-40
2023/01/16 01:18:39;;;;;;;3.77;1.63;;;3.80;76.70;;;7.02;47.95;96276.44;5031322;28;20072;-40
2023/01/16 01:21:07;;;;;;;3.33;1.80;;;3.80;76.60;;;6.99;47.93;96276.78;5031071;28;20049;-41
2023/01/16 01:23:36;;;;;;;5.53;3.00;;;3.80;76.70;;;6.95;48.28;96280.75;5032866;28;20045;-41
2023/01/16 01:26:14;;;;;;;3.57;1.70;;;3.80;76.70;;;6.93;47.77;96272.19;5032813;28;20436;-40
2023/01/16 01:28:43;;;;;;;6.27;2.30;;;3.80;76.60;;;6.89;48.11;96269.03;5032277;28;20049;-40
2023/01/16 01:31:12;;;;;;;8.23;2.13;;;3.70;77.00;;;6.87;48.24;96269.22;5032399;28;20045;-40
2023/01/16 01:33:41;;;;;;;2.70;1.73;;;3.80;76.70;;;6.84;48.02;96256.34;5031664;28;20048;-41
2023/01/16 01:36:09;;;;;;;4.43;2.53;;;3.80;76.70;;;6.82;47.75;96253.03;5031347;28;20069;-40
2023/01/16 01:38:37;;;;;;;2.13;1.50;;;3.80;76.60;;;6.82;47.96;96254.84;5032107;28;20041;-40
2023/01/16 01:41:06;;;;;;;5.10;2.20;;;3.80;76.60;;;6.81;48.57;96251.38;5032015;28;20056;-41
2023/01/16 01:43:53;;;;;;;6.20;1.60;;;3.70;76.60;;;6.79;48.15;96241.97;5031375;28;20488;-41
2023/01/16 01:46:42;;;;;;;4.30;1.77;;;3.70;76.90;;;6.82;47.77;96234.50;5031328;28;20049;-41
2023/01/16 01:49:30;;;;;;;5.27;2.00;;;3.70;77.20;;;6.79;47.94;96224.28;5031187;28;20045;-40
2023/01/16 01:52:03;;;;;;;7.77;3.07;;;3.70;76.90;;;6.75;48.05;96217.69;5031851;28;20385;-41
2023/01/16 01:54:38;;;;;;;2.77;1.30;;;3.60;76.80;;;6.73;48.05;96213.53;5032392;28;20042;-41
2023/01/16 01:57:13;;;;;;;4.07;1.53;;;3.60;76.80;;;6.72;47.95;96202.16;5032223;28;20493;-41
2023/01/16 01:59:53;;;;;;;3.13;1.70;;;3.60;76.80;;;6.75;48.26;96203.66;5031019;28;20404;-40
2023/01/16 02:02:26;;;;;;;3.50;1.73;;;3.60;77.10;;;6.75;47.81;96193.88;5031706;28;20400;-40
2023/01/16 02:04:56;;;;;;;4.50;1.47;;;3.60;76.40;;;6.73;47.91;96171.22;5015109;28;20037;-41
2023/01/16 02:07:27;;;;;;;2.93;1.57;;;3.60;76.80;;;6.68;48.54;96167.28;5024029;28;20370;-40
2023/01/16 02:10:15;;;;;;;3.07;1.20;;;3.60;77.00;;;6.65;48.34;96167.66;5031623;28;20108;-41
2023/01/16 02:12:42;;;;;;;3.03;1.40;;;3.60;76.90;;;6.68;47.71;96161.19;5026396;28;20042;-41
2023/01/16 02:15:10;;;;;;;3.63;1.40;;;3.60;76.80;;;6.69;48.02;96152.25;5031714;28;20057;-41
2023/01/16 02:20:55;;;;;;;2.20;1.00;;;3.60;76.60;;;6.66;48.16;96142.03;5024359;28;20037;-40
2023/01/16 02:24:15;;;;;;;3.10;1.20;;;3.60;76.90;;;6.63;48.43;96142.34;5030344;28;20061;-40
2023/01/16 02:27:09;;;;;;;1.50;1.00;;;3.50;76.80;;;6.63;47.85;96137.06;5025161;28;20072;-41
2023/01/16 02:30:24;;;;;;;2.03;1.00;;;3.50;76.90;;;6.60;48.13;96118.91;5030449;28;20394;-41
2023/01/16 02:32:58;;;;;;;1.73;0.73;;;3.50;77.10;;;6.63;48.36;96122.03;5025244;28;20069;-40
2023/01/16 02:35:59;;;;;;;1.90;1.10;;;3.50;77.10;;;6.60;47.98;96109.16;5023386;28;20056;-40
2023/01/16 02:38:58;;;;;;;2.47;0.73;;;3.50;77.10;;;6.63;48.50;96097.41;5022423;28;20038;-41
2023/01/16 02:42:03;;;;;;;3.27;0.80;;;3.50;77.00;;;6.62;48.33;96090.47;5023309;28;20515;-40
2023/01/16 02:44:45;;;;;;;2.13;1.00;;;3.50;76.90;;;6.67;48.53;96090.78;5030170;28;20413;-41
2023/01/16 02:47:47;;;;;;;1.97;0.93;;;3.50;77.10;;;6.66;48.07;96086.47;5030205;28;20520;-40
2023/01/16 02:50:20;;;;;;;1.07;0.60;;;3.50;76.90;;;6.66;48.21;96066.13;5030524;28;20041;-41
2023/01/16 02:53:12;;;;;;;5.90;1.15;;;3.50;76.80;;;6.67;48.22;96057.22;5030645;28;20041;-41
2023/01/16 02:55:53;;;;;;;2.90;1.00;;;3.60;76.90;;;6.68;48.54;96045.63;5025515;28;20041;-41
2023/01/16 02:58:21;;;;;;;1.37;1.27;;;3.60;76.90;;;6.70;48.45;96042.81;5029747;28;20045;-41
2023/01/16 03:00:56;;;;;;;2.17;1.10;;;3.60;76.80;;;6.68;48.41;96032.41;5029735;28;20037;-41
2023/01/16 03:03:49;;;;;;;;;;;3.60;76.60;;;6.74;48.36;96030.06;5030216;28;20056;-40
2023/01/16 03:06:19;;;;;;;2.20;0.90;;;3.70;76.40;;;6.85;48.59;96014.59;5029841;28;20300;-40
2023/01/16 03:09:14;;;;;;;6.13;1.00;;;3.70;76.70;;;6.83;47.95;95999.91;5030712;28;20041;-40
2023/01/16 03:12:05;;;;;;;1.90;0.80;;;3.70;76.00;;;6.90;48.40;96003.47;5024717;28;20042;-41
2023/01/16 03:14:44;;;;;;;2.20;0.87;;;3.80;76.00;;;7.00;48.22;95988.19;5022651;28;20495;-40
2023/01/16 03:17:38;;;;;;;0.80;0.80;;;3.80;75.90;;;7.00;48.37;95992.63;5030782;28;20049;-40
2023/01/16 03:20:20;;;;;;;1.65;0.90;;;3.90;75.50;;;7.02;47.91;95990.66;5030175;28;20400;-41
2023/01/16 03:23:29;;;;;;;1.07;0.90;;;3.90;75.00;;;7.02;47.83;95980.91;5030901;28;20044;-40
2023/01/16 03:26:07;;;;;;;2.07;1.03;;;3.90;74.70;;;7.17;47.92;95974.78;5025767;28;20056;-40
2023/01/16 03:29:14;;;;;;;0.90;0.73;;;4.00;74.70;;;7.21;48.19;95968.13;5022356;28;20045;-41
2023/01/16 03:32:09;;;;;;;3.13;0.80;;;4.10;74.50;;;7.29;47.99;95963.59;5024422;28;20045;-41
2023/01/16 03:35:16;;;;;;;1.60;0.90;;;4.10;74.80;;;7.36;47.43;95958.38;5006118;28;20397;-41
2023/01/16 03:37:52;;;;;;;2.20;1.00;;;4.10;74.60;;;7.36;47.21;95946.97;5023513;28;20042;-42
2023/01/16 03:40:28;;;;;;;4.70;1.10;;;4.10;74.60;;;7.37;47.19;95938.03;5028822;28;20041;-41
2023/01/16 03:43:02;;;;;;;1.87;1.00;;;4.20;74.10;;;7.37;47.51;95936.22;5029650;28;20046;-41
2023/01/16 03:45:52;;;;;;;;;;;4.20;74.40;;;7.35;47.65;95926.78;5023193;28;20500;-40
2023/01/16 03:48:38;;;;;;;1.17;0.80;;;4.10;73.50;;;7.37;47.66;95920.31;5030155;28;19921;-41
2023/01/16 03:51:08;;;;;;;1.53;1.00;;;4.10;74.30;;;7.33;47.57;95905.81;5030220;28;20432;-41
2023/01/16 03:53:45;;;;;;;2.70;1.03;;;4.00;74.60;;;7.32;47.04;95904.16;5029310;28;20034;-41
2023/01/16 03:56:27;;;;;;;1.90;0.90;;;4.00;74.50;;;7.23;47.36;95895.50;5031319;28;20042;-41
2023/01/16 03:58:55;;;;;;;3.00;0.70;;;4.00;74.30;;;7.20;47.01;95885.28;5033172;28;20432;-41
2023/01/16 04:01:39;;;;;;;3.40;1.07;;;3.90;74.80;;;7.22;47.25;95882.44;5032838;28;20041;-40
2023/01/16 04:04:35;;;;;;;1.10;0.70;;;3.90;74.80;;;7.19;47.09;95870.41;5026197;28;20424;-41
2023/01/16 04:07:29;;;;;;;2.63;0.70;;;3.90;74.00;;;7.19;47.34;95867.75;5034357;28;20041;-41
2023/01/16 04:10:01;;;;;;;2.08;0.80;;;3.90;74.60;;;7.14;47.46;95848.97;5028634;28;20044;-40
2023/01/16 04:12:36;;;;;;;2.37;1.17;;;3.90;74.60;;;7.13;47.17;95842.00;5032706;28;20106;-41
2023/01/16 04:15:07;;;;;;;3.33;0.90;;;3.90;74.00;;;7.10;47.06;95835.28;5032798;28;20045;-41
2023/01/16 04:17:38;;;;;;;1.00;0.90;;;3.90;74.70;;;7.12;47.11;95832.44;5025292;28;20101;-41
2023/01/16 04:20:08;;;;;;;2.07;0.97;;;3.90;74.50;;;7.13;46.81;95826.13;5033357;28;20053;-41
2023/01/16 04:22:36;;;;;;;2.60;0.90;;;3.90;74.30;;;7.08;47.02;95812.66;5033974;28;20041;-41
2023/01/16 04:25:08;;;;;;;2.50;0.90;;;3.90;74.60;;;7.07;47.21;95813.63;5032543;28;20412;-41
2023/01/16 04:27:36;;;;;;;1.30;1.20;;;3.90;74.40;;;7.05;47.14;95805.88;5025324;28;20045;-40
2023/01/16 04:30:07;;;;;;;1.60;1.33;;;3.80;74.20;;;7.05;47.14;95805.06;5033454;28;20049;-41
2023/01/16 04:32:35;;;;;;;1.13;0.67;;;3.90;74.00;;;7.05;47.00;95783.91;5026135;28;20516;-40
2023/01/16 04:35:04;;;;;;;3.20;1.63;;;3.90;74.20;;;7.06;46.91;95774.97;5033787;28;20543;-41
2023/01/16 04:37:33;;;;;;;1.83;0.83;;;3.90;73.70;;;7.03;46.85;95772.69;5025747;28;20496;-41
2023/01/16 04:40:01;;;;;;;1.57;0.80;;;3.90;73.60;;;7.03;47.11;95760.25;5016172;28;20045;-41
2023/01/16 04:42:29;;;;;;;3.00;1.17;;;3.90;73.70;;;7.02;47.16;95765.75;5033605;28;20393;-40
2023/01/16 04:44:57;;;;;;;1.70;0.87;;;3.80;73.30;;;7.00;46.93;95742.13;5029827;28;20050;-40
2023/01/16 04:47:25;;;;;;;1.73;0.97;;;3.80;73.60;;;7.01;46.63;95748.22;5032635;28;20056;-41
2023/01/16 04:49:52;;;;;;;1.43;0.80;;;3.80;73.60;;;7.02;47.15;95732.19;5033469;28;20045;-41
2023/01/16 04:52:20;;;;;;;1.53;0.50;;;3.80;73.90;;;7.02;46.87;95726.88;5033071;28;20077;-40
2023/01/16 04:54:48;;;;;;;2.33;0.93;;;3.80;73.50;;;7.00;47.04;95713.03;5033479;28;20057;-40
2023/01/16 04:57:16;;;;;;;2.30;1.73;;;3.80;73.10;;;6.98;47.10;95712.41;5033561;28;20481;-41
2023/01/16 04:59:43;;;;;;;4.23;1.10;;;3.80;73.20;;;7.00;47.07;95691.88;5032962;28;20041;-40
2023/01/16 05:02:11;;;;;;;3.03;1.40;;;3.80;73.10;;;7.01;47.29;95685.56;5033224;28;20056;-40
2023/01/16 05:04:40;;;;;;;1.53;1.10;;;3.80;73.50;;;6.99;47.26;95678.81;5033404;28;20408;-41
2023/01/16 05:07:08;;;;;;;2.33;0.90;;;3.80;73.20;;;7.01;46.51;95671.50;5033056;28;20042;-41
2023/01/16 05:09:36;;;;;;;0.87;0.70;;;3.80;72.70;;;6.97;46.91;95663.13;5033098;28;20040;-40
2023/01/16 05:12:04;;;;;;;1.33;0.80;;;3.80;72.90;;;6.96;47.34;95652.72;5033050;28;20042;-41
2023/01/16 05:14:31;;;;;;;2.13;0.93;;;3.80;73.20;;;6.95;46.50;95654.56;5032873;28;20041;-40
2023/01/16 05:16:59;;;;;;;2.07;0.80;;;3.80;72.70;;;6.89;46.66;95642.09;5032847;28;20300;-40
2023/01/16 05:19:27;;;;;;;2.20;0.80;;;3.80;73.00;;;6.87;46.94;95644.91;5032652;28;20056;-40
2023/01/16 05:21:55;;;;;;;6.67;4.40;;;3.80;73.60;;;6.89;46.77;95637.59;5032849;28;20052;-40
2023/01/16 05:24:22;;;;;;;24.73;15.90;;;3.80;73.50;;;6.94;47.44;95636.22;5032700;28;20059;-40
2023/01/16 05:26:50;;;;;;;4.90;2.87;;;3.80;73.70;;;6.93;46.79;95635.41;5032929;28;20501;-41
2023/01/16 05:29:18;;;;;;;2.13;1.43;;;3.90;73.30;;;6.93;47.36;95631.94;5032442;28;20049;-41
2023/01/16 05:31:46;;;;;;;6.60;5.50;;;3.80;73.40;;;6.96;47.05;95619.16;5032477;28;20038;-40
2023/01/16 05:34:13;;;;;;;5.63;3.30;;;3.80;73.60;;;6.98;47.33;95609.22;5032413;28;20050;-40
2023/01/16 05:36:42;;;;;;;13.20;8.33;;;3.80;73.70;;;6.97;46.62;95602.28;5032526;28;20045;-40
2023/01/16 05:39:10;;;;;;;10.53;6.97;;;3.80;73.60;;;6.97;47.37;95593.53;5014804;28;20053;-41
2023/01/16 05:41:38;;;;;;;10.57;4.80;;;3.80;73.90;;;6.92;47.49;95578.22;5024455;28;20386;-41
2023/01/16 05:44:05;;;;;;;7.33;4.37;;;3.70;74.30;;;6.87;47.40;95568.19;5032402;28;20045;-41
2023/01/16 05:46:33;;;;;;;7.97;5.50;;;3.60;74.70;;;6.80;47.25;95555.91;5032266;28;20049;-41
2023/01/16 05:49:01;;;;;;;7.13;4.20;;;3.50;75.10;;;6.76;47.05;95544.88;5032258;28;20048;-41
2023/01/16 05:51:29;;;;;;;6.00;2.80;;;3.40;75.70;;;6.70;47.32;95527.13;5047263;28;20050;-40
2023/01/16 05:53:56;;;;;;;5.27;2.43;;;3.40;75.50;;;6.66;47.06;95525.88;5032278;28;20041;-41
2023/01/16 05:56:25;;;;;;;4.43;2.10;;;3.30;75.70;;;6.63;47.13;95520.97;5030799;28;20046;-41
2023/01/16 05:58:54;;;;;;;4.53;2.20;;;3.30;75.40;;;6.59;47.20;95506.47;5032025;28;20060;-41
2023/01/16 06:01:21;;;;;;;10.23;5.10;;;3.30;75.90;;;6.58;47.05;95507.50;5031882;28;20045;-40
2023/01/16 06:03:49;;;;;;;5.77;3.30;;;3.30;75.50;;;6.58;47.08;95483.72;5030858;28;20053;-41
2023/01/16 06:06:17;;;;;;;4.40;2.10;;;3.30;75.40;;;6.55;47.70;95478.78;5031896;28;20053;-41
2023/01/16 06:08:46;;;;;;;4.30;1.93;;;3.30;75.80;;;6.54;47.26;95477.16;5031210;28;20041;-40
2023/01/16 06:11:14;;;;;;;3.20;2.90;;;3.20;76.00;;;6.55;47.59;95476.94;5031717;28;20057;-41
2023/01/16 06:13:43;;;;;;;3.30;2.40;;;3.30;75.80;;;6.52;47.55;95466.78;5031758;28;20045;-41
2023/01/16 06:16:10;;;;;;;2.90;1.47;;;3.20;75.70;;;6.54;47.02;95453.38;5030738;28;20512;-41
2023/01/16 06:18:38;;;;;;;1.53;1.13;;;3.30;75.80;;;6.56;47.30;95451.34;5023084;28;20041;-43
2023/01/16 06:21:06;;;;;;;3.77;1.90;;;3.30;75.90;;;6.58;47.51;95441.41;5030557;28;20052;-40
2023/01/16 06:23:34;;;;;;;2.60;1.70;;;3.30;75.80;;;6.57;47.40;95435.31;5030271;28;20061;-41
2023/01/16 06:26:02;;;;;;;2.70;1.37;;;3.20;76.10;;;6.52;47.70;95421.03;5031631;28;20049;-41
2023/01/16 06:28:30;;;;;;;3.73;1.33;;;3.20;76.30;;;6.50;47.77;95421.22;5030043;28;20037;-40
2023/01/16 06:30:58;;;;;;;3.63;1.60;;;3.20;76.50;;;6.48;47.94;95412.66;5031438;28;20049;-40
2023/01/16 06:33:26;;;;;;;2.03;1.30;;;3.20;76.60;;;6.46;47.84;95407.56;5031323;28;20053;-40
2023/01/16 06:35:54;;;;;;;2.67;1.47;;;3.10;76.80;;;6.47;47.88;95405.72;5030015;28;20515;-40
2023/01/16 06:38:22;;;;;;;3.50;1.70;;;3.20;77.00;;;6.48;48.13;95407.38;5030999;28;20048;-40
2023/01/16 06:40:55;;;;;;;2.73;1.87;;;3.20;76.70;;;6.51;47.61;95396.41;5031220;28;20045;-40
2023/01/16 06:43:27;;;;;;;5.68;2.72;;;3.20;76.30;;;6.56;47.29;95394.00;5031276;28;20057;-41
2023/01/16 06:45:55;;;;;;;2.70;1.90;;;3.20;76.10;;;6.56;47.01;95385.25;5030233;28;20041;-40
2023/01/16 06:48:23;;;;;;;5.43;2.27;;;3.30;76.10;;;6.57;47.82;95381.59;5030828;28;20045;-41
2023/01/16 06:50:53;;;;;;;5.60;3.10;;;3.30;75.70;;;6.57;47.35;95387.72;5030933;28;20401;-41
2023/01/16 06:53:21;;;;;;;6.60;2.97;;;3.30;76.00;;;6.59;47.02;95382.22;5030206;28;20060;-41
2023/01/16 06:55:48;;;;;;;9.33;4.43;;;3.30;75.50;;;6.59;47.37;95376.94;5031167;28;20042;-42
2023/01/16 06:58:16;;;;;;;7.57;4.27;;;3.40;74.90;;;6.60;47.33;95376.75;5030462;28;20056;-41
2023/01/16 07:00:44;;;;;;;6.20;3.27;;;3.50;74.10;;;6.65;47.70;95386.75;5030856;28;20037;-40
2023/01/16 07:03:12;;;;;;;4.77;1.90;;;3.50;74.00;;;6.70;47.58;95365.84;5030882;28;20046;-40
2023/01/16 07:05:40;;;;;;;5.73;2.87;;;3.60;73.30;;;6.76;47.07;95359.78;5031092;28;20045;-40
2023/01/16 07:08:08;;;;;;;2.90;1.27;;;3.60;72.30;;;6.77;46.92;95358.78;5030595;28;20054;-41
2023/01/16 07:10:36;;;;;;;3.37;1.20;;;3.70;72.50;;;6.79;47.26;95350.66;5030433;28;20064;-40
2023/01/16 07:13:04;;;;;;;2.07;1.43;;;3.80;72.10;;;6.81;47.18;95346.78;5029598;28;20041;-41
2023/01/16 07:24:06;;;;;;;2.60;1.07;;;3.90;71.40;;;6.97;46.88;95329.78;5029652;28;20052;-40
2023/01/16 07:26:38;;;;;;;4.70;2.70;;;3.90;71.00;;;7.03;46.89;95330.84;5029334;28;20053;-40
2023/01/16 07:29:06;;;;;;;2.43;1.33;;;3.90;71.10;;;7.05;46.55;95324.34;5029232;28;20381;-39
2023/01/16 07:31:35;;;;;;;5.50;1.20;;;3.90;70.90;;;7.12;46.90;95320.94;5031809;28;20052;-40
2023/01/16 07:34:02;;;;;;;5.53;2.70;;;4.00;71.30;;;7.16;46.00;95309.75;5035060;28;20037;-40
2023/01/16 07:36:30;;;;;;;3.40;2.13;;;3.90;71.50;;;7.18;46.34;95305.06;5034575;28;20045;-40
2023/01/16 07:38:58;;;;;;;7.27;3.03;;;3.90;71.20;;;7.21;46.32;95301.22;5033489;28;20057;-40
2023/01/16 07:41:26;;;;;;;2.40;1.57;;;3.90;71.60;;;7.20;46.88;95299.59;5034122;28;20041;-40
2023/01/16 07:43:54;;;;;;;5.07;1.90;;;3.90;72.30;;;7.17;46.59;95294.69;5034791;28;20112;-40
2023/01/16 07:46:21;;;;;;;2.77;1.33;;;3.80;72.80;;;7.14;46.73;95290.59;5031730;28;20049;-40
2023/01/16 07:48:51;;;;;;;1.77;0.80;;;3.70;73.20;;;7.09;46.25;95280.63;5032342;28;20461;-40
2023/01/16 07:51:19;;;;;;;1.47;1.37;;;3.70;73.50;;;7.06;46.99;95270.41;5034326;28;20075;-40
2023/01/16 07:53:47;;;;;;;2.67;1.10;;;3.70;73.60;;;7.05;46.65;95262.69;5034167;28;20041;-40
2023/01/16 07:56:15;;;;;;;3.13;0.90;;;3.60;73.60;;;7.03;46.55;95256.78;5033499;28;20117;-40
2023/01/16 07:58:43;;;;;;;2.70;1.10;;;3.60;74.00;;;6.99;46.66;95255.53;5033859;28;20412;-40
2023/01/16 08:01:11;;;;;;;3.37;1.20;;;3.60;74.30;;;6.95;47.25;95241.88;5032830;28;20053;-40
2023/01/16 08:03:39;;;;;;;2.20;1.27;;;3.50;74.70;;;6.93;47.41;95241.25;5032489;28;20050;-39
2023/01/16 08:06:08;;;;;;;2.70;1.30;;;3.50;75.50;;;6.93;46.96;95243.91;5033997;28;20504;-40
2023/01/16 08:08:35;;;;;;;7.03;2.87;;;3.40;75.60;;;6.94;46.89;95231.50;5033662;28;20049;-40
2023/01/16 08:13:49;;;;;;;2.83;2.10;;;3.50;75.80;;;6.92;47.09;95221.13;5026742;28;20390;-41
2023/01/16 08:16:17;;;;;;;5.13;2.03;;;3.50;76.00;;;6.91;47.09;95230.06;5034087;28;20048;-40
2023/01/16 08:18:48;;;;;;;6.60;2.57;;;3.40;75.80;;;6.88;47.60;95218.06;5032085;28;20038;-40
2023/01/16 08:21:17;;;;;;;3.33;2.53;;;3.40;76.20;;;6.85;47.48;95215.00;5033570;28;20041;-40
2023/01/16 08:23:45;;;;;;;7.10;2.80;;;3.40;76.40;;;6.84;47.46;95208.88;5033856;28;20038;-39
2023/01/16 08:26:13;;;;;;;4.77;2.20;;;3.40;76.90;;;6.85;47.89;95209.69;5032861;28;20057;-40
2023/01/16 08:28:41;;;;;;;2.93;2.00;;;3.40;76.60;;;6.85;47.45;95199.94;5032331;28;20037;-40
2023/01/16 08:31:13;;;;;;;6.10;2.40;;;3.40;76.90;;;6.88;47.34;95196.06;5032398;28;20076;-40
2023/01/16 08:33:43;;;;;;;5.20;3.00;;;3.40;76.80;;;6.92;47.57;95192.03;5033927;28;20046;-40
2023/01/16 08:36:12;;;;;;;4.73;3.30;;;3.50;76.90;;;6.94;47.42;95184.72;5033781;28;20543;-40
2023/01/16 08:38:40;;;;;;;5.33;2.17;;;3.50;76.80;;;6.95;47.48;95194.25;5033425;28;20060;-40
2023/01/16 08:51:21;;;;;;;2.67;1.23;;;3.50;76.70;;;6.99;47.46;95186.75;5031860;28;20056;-41
2023/01/16 08:52:36;;;;;;;3.90;2.00;;;3.60;76.00;;;7.06;47.49;95187.59;5031527;28;20045;-41
2023/01/16 08:55:06;;;;;;;3.37;1.50;;;3.60;75.60;;;7.09;47.16;95180.09;5033332;28;20045;-40
2023/01/16 08:57:34;;;;;;;3.27;1.53;;;3.70;75.60;;;7.13;47.50;95175.19;5031984;28;20046;-40
2023/01/16 09:00:07;;;;;;;2.43;1.80;;;3.70;75.20;;;7.18;47.40;95180.69;5033023;28;20041;-40
2023/01/16 09:02:36;;;;;;;8.03;3.83;;;3.80;75.30;;;7.22;47.13;95178.47;5033174;28;20052;-40
2023/01/16 09:05:05;;;;;;;8.23;3.10;;;3.80;75.00;;;7.27;46.94;95184.78;5033383;28;20061;-41
2023/01/16 09:07:33;;;;;;;3.30;1.60;;;3.90;75.30;;;7.30;46.90;95181.72;5033050;28;20057;-39
2023/01/16 09:10:00;;;;;;;3.93;1.93;;;3.90;75.20;;;7.33;47.22;95188.47;5032722;28;20045;-39
2023/01/16 09:15:14;;;;;;;4.83;2.50;;;3.90;74.70;;;7.34;47.00;95202.50;5032941;28;20469;-40
2023/01/16 09:17:42;;;;;;;6.50;3.20;;;3.90;74.40;;;7.35;46.96;95178.50;5031647;28;20045;-40
2023/01/16 09:20:10;;;;;;;6.80;1.77;;;3.90;74.80;;;7.39;47.37;95165.69;5031309;28;20492;-40
2023/01/16 09:22:38;;;;;;;3.07;1.97;;;3.90;75.60;;;7.41;46.95;95169.75;5015253;28;20049;-40
2023/01/16 09:25:06;;;;;;;2.03;1.17;;;3.90;74.20;;;7.41;46.62;95161.81;5032702;28;20052;-41
2023/01/16 09:27:34;;;;;;;2.07;1.60;;;4.00;74.20;;;7.48;47.38;95140.63;5033039;28;20041;-40
2023/01/16 09:30:03;;;;;;;2.07;1.20;;;4.10;73.80;;;7.53;46.67;95130.25;5031529;28;20053;-41
2023/01/16 09:32:33;;;;;;;3.10;1.30;;;4.30;72.80;;;7.57;46.92;95128.81;5032596;28;20053;-45
2023/01/16 09:35:01;;;;;;;2.60;1.13;;;4.40;71.60;;;7.58;45.80;95122.53;5032403;28;20185;-42
2023/01/16 09:37:29;;;;;;;5.63;1.00;;;4.40;70.10;;;7.62;45.66;95112.34;5032402;28;20041;-40
2023/01/16 09:39:56;;;;;;;2.13;0.90;;;4.40;68.10;;;7.64;45.40;95103.16;5032239;28;20519;-42
2023/01/16 09:45:35;;;;;;;1.90;0.87;;;4.70;65.90;;;7.72;45.47;95109.28;5031502;28;20256;-40
2023/01/16 09:48:13;;;;;;;0.80;0.60;;;4.70;67.00;;;7.76;45.32;95105.19;5023902;28;20308;-40
2023/01/16 09:50:51;;;;;;;1.10;0.93;;;4.70;66.60;;;7.79;44.76;95096.81;5021408;28;20049;-40
2023/01/16 09:58:35;;;;;;;1.33;0.43;;;4.80;65.80;;;7.91;44.90;95089.06;5031858;28;20416;-42
2023/01/16 09:59:53;;;;;;;3.00;1.20;;;4.80;64.80;;;7.95;44.50;95092.91;5028037;28;20045;-40
2023/01/16 10:02:43;;;;;;;1.50;1.10;;;4.80;64.20;;;7.89;44.70;95076.03;5030807;28;20063;-41
2023/01/16 10:05:13;;;;;;;1.80;0.87;;;4.80;64.80;;;7.99;44.45;95063.16;5030862;28;20401;-41
2023/01/16 10:08:11;;;;;;;2.83;0.70;;;4.90;64.40;;;7.99;44.26;95052.56;5031955;28;20504;-41
2023/01/16 10:11:13;;;;;;;0.97;0.80;;;4.90;64.90;;;8.04;44.44;95039.50;5031896;28;20319;-41
2023/01/16 10:14:04;;;;;;;2.63;0.70;;;5.00;64.50;;;8.08;44.39;95038.09;5028410;28;20061;-43
2023/01/16 10:17:15;;;;;;;0.63;0.50;;;5.10;63.10;;;8.12;44.36;95035.00;5031437;28;20045;-40
2023/01/16 10:19:58;;;;;;;1.10;0.60;;;5.10;63.10;;;8.17;43.65;95032.53;5009375;28;20057;-41
2023/01/16 10:22:57;;;;;;;3.63;1.13;;;5.20;62.70;;;8.22;44.24;95027.41;5031564;28;20050;-40
2023/01/16 10:25:58;;;;;;;0.93;0.63;;;5.20;62.30;;;8.27;43.70;95036.34;5026836;28;20288;-42
2023/01/16 10:28:46;;;;;;;3.07;0.73;;;5.30;62.10;;;8.33;43.16;95018.78;5026900;28;20504;-40
2023/01/16 10:31:32;;;;;;;1.00;0.83;;;5.30;61.20;;;8.26;43.16;95023.34;5026358;28;20049;-42
2023/01/16 10:34:14;;;;;;;1.57;0.80;;;5.30;62.30;;;8.34;43.01;95019.63;5023511;28;20049;-40
2023/01/16 10:36:51;;;;;;;1.60;1.00;;;5.40;61.70;;;8.32;43.31;95019.84;5030819;28;20053;-41
2023/01/16 10:39:21;;;;;;;1.20;0.80;;;5.40;62.90;;;8.36;43.08;95006.97;5030119;28;20053;-41
2023/01/16 10:50:39;;;;;;;0.60;0.53;;;5.40;61.70;;;8.44;42.52;94975.75;5030361;28;20050;-41
2023/01/16 10:53:10;;;;;;;0.80;0.70;;;5.40;61.10;;;8.47;42.07;94963.88;5030087;28;20052;-41
2023/01/16 10:55:46;;;;;;;0.93;0.67;;;5.40;60.70;;;8.47;42.29;94969.19;5030006;28;20042;-41
2023/01/16 10:58:31;;;;;;;0.50;0.47;;;5.40;58.60;;;8.42;42.15;94961.09;5029810;28;20504;-41
2023/01/16 11:01:04;;;;;;;0.77;0.63;;;5.40;60.00;;;8.39;42.46;94956.97;5023660;28;20053;-40
2023/01/16 11:03:52;;;;;;;2.50;0.70;;;5.40;59.80;;;8.44;42.86;94954.53;5029958;28;20049;-42
2023/01/16 11:06:30;;;;;;;2.80;0.90;;;5.40;61.10;;;8.52;42.48;94942.84;5029865;28;20049;-40
2023/01/16 11:09:15;;;;;;;2.07;0.73;;;5.50;61.90;;;8.60;42.39;94942.59;5021794;28;20136;-39
2023/01/16 11:20:31;;;;;;;1.10;0.77;;;5.60;60.70;;;8.70;42.33;94912.94;5025608;28;20072;-39
2023/01/16 11:23:21;;;;;;;2.00;0.73;;;5.70;61.20;;;8.74;42.75;94900.06;5006467;28;20416;-40
2023/01/16 11:25:53;;;;;;;0.87;0.70;;;5.70;61.60;;;8.75;42.59;94891.09;5030981;28;20049;-40
2023/01/16 11:28:27;;;;;;;1.10;0.80;;;5.70;62.30;;;8.78;42.76;94877.38;5029476;28;20057;-39
2023/01/16 11:31:13;;;;;;;1.73;1.00;;;5.70;62.80;;;8.77;43.00;94881.06;5031002;28;20515;-40
2023/01/16 11:33:47;;;;;;;2.73;1.07;;;5.70;63.10;;;8.79;42.95;94876.34;5030635;28;20050;-40
2023/01/16 11:36:18;;;;;;;0.93;0.88;;;5.80;63.40;;;8.83;43.08;94869.59;5029668;28;20046;-39
2023/01/16 11:38:48;;;;;;;1.00;0.90;;;5.80;63.80;;;8.73;43.51;94869.28;5012886;28;20049;-39
2023/01/16 11:41:33;;;;;;;2.50;1.53;;;5.70;64.20;;;8.81;43.24;94861.84;5030660;28;20076;-39
2023/01/16 11:47:21;;;;;;;1.55;1.00;;;5.80;64.60;;;8.85;43.74;94841.00;5024191;28;20061;-40
2023/01/16 11:49:52;;;;;;;1.13;0.88;;;5.80;65.20;;;8.94;43.76;94842.34;5030433;28;20057;-39
2023/01/16 11:52:29;;;;;;;3.10;1.47;;;5.80;65.70;;;8.92;43.84;94830.31;5028467;28;20057;-39
2023/01/16 11:55:04;;;;;;;5.70;2.70;;;5.80;65.70;;;8.95;43.92;94820.06;5022756;28;20054;-40